createdAt,value
2018-09-05T00:00:07.693Z,99.9
2018-09-05T00:01:08.029Z,99.9
2018-09-05T00:02:11.728Z,99.9
2018-09-05T00:03:14.396Z,99.9
2018-09-05T00:04:15.386Z,99.9
2018-09-05T00:05:16.334Z,99.9
2018-09-05T00:06:16.265Z,99.9
2018-09-05T00:07:16.450Z,99.9
2018-09-05T00:08:16.629Z,99.9
2018-09-05T00:09:18.745Z,99.9
2018-09-05T00:10:21.609Z,99.9
2018-09-05T00:11:21.752Z,99.9
2018-09-05T00:12:21.714Z,99.9
2018-09-05T00:13:25.653Z,99.9
2018-09-05T00:14:26.805Z,99.9
2018-09-05T00:15:30.348Z,99.9
2018-09-05T00:16:30.508Z,99.9
2018-09-05T00:17:30.426Z,99.9
2018-09-05T00:18:34.314Z,99.9
2018-09-05T00:19:34.528Z,99.9
2018-09-05T00:20:34.477Z,99.9
2018-09-05T00:21:38.538Z,99.9
2018-09-05T00:22:38.489Z,99.9
2018-09-05T00:23:38.653Z,99.9
2018-09-05T00:24:40.397Z,99.9
2018-09-05T00:25:40.333Z,99.9
2018-09-05T00:26:41.280Z,99.9
2018-09-05T00:27:41.248Z,99.9
2018-09-05T00:28:41.162Z,99.9
2018-09-05T00:29:41.688Z,99.9
2018-09-05T00:30:41.609Z,99.9
2018-09-05T00:31:41.802Z,99.9
2018-09-05T00:32:41.738Z,99.9
2018-09-05T00:33:44.349Z,99.9
2018-09-05T00:34:47.829Z,99.9
2018-09-05T00:35:50.527Z,99.9
2018-09-05T00:36:53.219Z,99.9
2018-09-05T00:37:53.179Z,99.9
2018-09-05T00:38:53.335Z,99.9
2018-09-05T00:39:56.496Z,99.9
2018-09-05T00:40:56.418Z,99.9
2018-09-05T00:41:56.373Z,99.9
2018-09-05T00:42:56.287Z,99.9
2018-09-05T00:43:56.225Z,99.9
2018-09-05T00:44:56.651Z,99.9
2018-09-05T00:45:56.553Z,99.9
2018-09-05T00:46:56.466Z,99.9
2018-09-05T00:47:56.447Z,99.9
2018-09-05T00:48:59.466Z,99.9
2018-09-05T00:49:59.631Z,99.9
2018-09-05T00:51:01.540Z,99.9
2018-09-05T00:52:01.492Z,99.9
2018-09-05T00:53:01.498Z,99.9
2018-09-05T00:54:01.424Z,99.9
2018-09-05T00:55:03.291Z,99.9
2018-09-05T00:56:03.314Z,99.9
2018-09-05T00:57:03.274Z,99.9
2018-09-05T00:58:03.224Z,99.9
2018-09-05T00:59:03.175Z,99.9
2018-09-05T01:00:03.112Z,99.9
2018-09-05T01:01:03.322Z,99.9
2018-09-05T01:02:06.092Z,99.9
2018-09-05T01:03:06.007Z,99.9
2018-09-05T01:04:05.954Z,99.9
2018-09-05T01:05:06.377Z,99.9
2018-09-05T01:06:07.297Z,99.9
2018-09-05T01:07:08.243Z,99.9
2018-09-05T01:08:08.157Z,99.9
2018-09-05T01:09:08.074Z,99.9
2018-09-05T01:10:08.346Z,99.9
2018-09-05T01:11:08.271Z,99.9
2018-09-05T01:12:08.207Z,99.9
2018-09-05T01:13:08.183Z,99.9
2018-09-05T01:14:08.113Z,99.9
2018-09-05T01:15:08.511Z,99.9
2018-09-05T01:16:08.513Z,99.9
2018-09-05T01:17:08.420Z,99.9
2018-09-05T01:18:08.354Z,99.9
2018-09-05T01:19:08.288Z,99.9
2018-09-05T01:20:08.239Z,99.9
2018-09-05T01:21:08.472Z,99.9
2018-09-05T01:22:08.423Z,99.9
2018-09-05T01:23:08.372Z,99.9
2018-09-05T01:24:08.292Z,99.9
2018-09-05T01:25:08.671Z,99.9
2018-09-05T01:26:08.664Z,99.9
2018-09-05T01:27:08.622Z,99.9
2018-09-05T01:28:08.593Z,99.9
2018-09-05T01:29:08.521Z,99.9
2018-09-05T01:30:08.445Z,99.9
2018-09-05T01:31:08.363Z,99.9
2018-09-05T01:32:08.306Z,99.9
2018-09-05T01:33:08.224Z,99.9
2018-09-05T01:34:08.150Z,99.9
2018-09-05T01:35:08.932Z,99.9
2018-09-05T01:36:08.859Z,99.9
2018-09-05T01:37:08.793Z,99.9
2018-09-05T01:38:08.746Z,99.9
2018-09-05T01:39:08.668Z,99.9
2018-09-05T01:40:08.577Z,99.9
2018-09-05T01:41:08.476Z,99.9
2018-09-05T01:42:08.391Z,99.9
2018-09-05T01:43:08.344Z,99.9
2018-09-05T01:44:08.270Z,99.9
2018-09-05T01:45:08.641Z,99.9
2018-09-05T01:46:08.567Z,99.9
2018-09-05T01:47:08.483Z,99.9
2018-09-05T01:48:08.404Z,99.9
2018-09-05T01:49:08.312Z,99.9
2018-09-05T01:50:08.249Z,99.9
2018-09-05T01:51:08.162Z,99.9
2018-09-05T01:52:08.125Z,99.9
2018-09-05T01:53:08.048Z,99.9
2018-09-05T01:54:07.967Z,99.9
2018-09-05T01:55:08.324Z,99.9
2018-09-05T01:56:08.255Z,99.9
2018-09-05T01:57:08.171Z,99.9
2018-09-05T01:58:08.080Z,99.9
2018-09-05T01:59:08.043Z,99.9
2018-09-05T02:00:07.953Z,99.9
2018-09-05T02:01:07.896Z,99.9
2018-09-05T02:02:07.822Z,99.9
2018-09-05T02:03:07.738Z,99.9
2018-09-05T02:04:07.672Z,99.9
2018-09-05T02:05:08.054Z,99.9
2018-09-05T02:06:07.966Z,99.9
2018-09-05T02:07:07.892Z,99.9
2018-09-05T02:08:07.893Z,99.9
2018-09-05T02:09:07.828Z,99.9
2018-09-05T02:10:07.750Z,99.9
2018-09-05T02:11:07.671Z,99.9
2018-09-05T02:12:07.590Z,99.9
2018-09-05T02:13:07.548Z,99.9
2018-09-05T02:14:07.454Z,99.9
2018-09-05T02:15:07.869Z,99.9
2018-09-05T02:16:07.790Z,99.9
2018-09-05T02:17:07.700Z,99.9
2018-09-05T02:18:07.617Z,99.9
2018-09-05T02:19:07.530Z,99.9
2018-09-05T02:20:07.483Z,99.9
2018-09-05T02:21:07.396Z,99.9
2018-09-05T02:22:07.306Z,99.9
2018-09-05T02:23:07.230Z,99.9
2018-09-05T02:24:07.138Z,99.9
2018-09-05T02:25:07.505Z,99.9
2018-09-05T02:26:07.429Z,99.9
2018-09-05T02:27:07.354Z,99.9
2018-09-05T02:28:07.271Z,99.9
2018-09-05T02:29:07.186Z,99.9
2018-09-05T02:30:07.137Z,99.9
2018-09-05T02:31:07.059Z,99.9
2018-09-05T02:32:06.968Z,99.9
2018-09-05T02:33:06.904Z,99.9
2018-09-05T02:34:06.817Z,99.9
2018-09-05T02:35:07.168Z,99.9
2018-09-05T02:36:07.089Z,99.9
2018-09-05T02:37:07.041Z,99.9
2018-09-05T02:38:06.959Z,99.9
2018-09-05T02:39:06.874Z,99.9
2018-09-05T02:40:06.794Z,99.9
2018-09-05T02:41:06.718Z,99.9
2018-09-05T02:42:06.652Z,99.9
2018-09-05T02:43:06.574Z,99.9
2018-09-05T02:44:06.479Z,99.9
2018-09-05T02:45:06.839Z,99.9
2018-09-05T02:46:06.773Z,99.9
2018-09-05T02:47:06.705Z,99.9
2018-09-05T02:48:06.620Z,99.9
2018-09-05T02:49:06.623Z,99.9
2018-09-05T02:50:06.565Z,99.9
2018-09-05T02:51:06.473Z,99.9
2018-09-05T02:52:06.401Z,99.9
2018-09-05T02:53:06.306Z,99.9
2018-09-05T02:54:06.222Z,99.9
2018-09-05T02:55:06.574Z,99.9
2018-09-05T02:56:06.495Z,99.9
2018-09-05T02:57:06.441Z,99.9
2018-09-05T02:58:06.345Z,99.9
2018-09-05T02:59:06.271Z,99.9
2018-09-05T03:00:06.181Z,99.9
2018-09-05T03:01:06.127Z,99.9
2018-09-05T03:02:06.056Z,99.9
2018-09-05T03:03:05.987Z,99.9
2018-09-05T03:04:05.921Z,99.9
2018-09-05T03:05:06.295Z,99.9
2018-09-05T03:06:07.196Z,99.9
2018-09-05T03:07:07.102Z,99.9
2018-09-05T03:08:07.032Z,99.9
2018-09-05T03:09:07.964Z,99.9
2018-09-05T03:10:07.893Z,99.9
2018-09-05T03:11:10.649Z,99.9
2018-09-05T03:12:10.571Z,99.9
2018-09-05T03:13:13.248Z,99.9
2018-09-05T03:14:13.173Z,99.9
2018-09-05T03:15:16.110Z,99.9
2018-09-05T03:16:16.030Z,99.9
2018-09-05T03:17:16.044Z,99.9
2018-09-05T03:18:23.517Z,99.9
2018-09-05T03:19:24.668Z,99.9
2018-09-05T03:20:25.238Z,99.9
2018-09-05T03:21:25.408Z,99.9
2018-09-05T03:22:25.301Z,99.9
2018-09-05T03:23:26.298Z,99.9
2018-09-05T03:24:26.555Z,99.9
2018-09-05T03:25:31.944Z,99.9
2018-09-05T03:26:40.328Z,99.9
2018-09-05T03:27:40.942Z,99.9
2018-09-05T03:28:45.244Z,99.9
2018-09-05T03:29:45.623Z,99.9
2018-09-05T03:30:47.140Z,99.9
2018-09-05T03:31:47.091Z,99.9
2018-09-05T03:32:49.606Z,99.9
2018-09-05T03:33:53.368Z,99.9
2018-09-05T03:34:53.808Z,99.9
2018-09-05T03:35:57.392Z,99.9
2018-09-05T03:36:58.314Z,99.9
2018-09-05T03:38:26.001Z,99.9
2018-09-05T03:39:26.383Z,99.9
2018-09-05T03:40:29.876Z,99.9
2018-09-05T03:41:30.038Z,99.9
2018-09-05T03:42:33.317Z,99.9
2018-09-05T03:43:33.687Z,99.9
2018-09-05T03:44:36.765Z,99.9
2018-09-05T03:45:39.742Z,99.9
2018-09-05T03:46:47.634Z,99.9
2018-09-05T03:47:51.288Z,99.9
2018-09-05T03:48:52.119Z,99.9
2018-09-05T03:49:53.067Z,99.9
2018-09-05T03:50:53.515Z,99.9
2018-09-05T03:51:56.226Z,99.9
2018-09-05T03:52:57.397Z,99.9
2018-09-05T03:53:57.979Z,99.9
2018-09-05T03:54:58.874Z,99.9
2018-09-05T03:56:01.694Z,99.9
2018-09-05T03:57:12.804Z,99.9
2018-09-05T03:58:16.754Z,99.9
2018-09-05T03:59:19.321Z,99.9
2018-09-05T04:00:19.744Z,99.9
2018-09-05T04:01:23.537Z,99.9
2018-09-05T04:02:26.473Z,99.9
2018-09-05T04:03:27.635Z,99.9
2018-09-05T04:04:27.773Z,99.9
2018-09-05T04:05:37.420Z,99.9
2018-09-05T04:06:40.501Z,99.9
2018-09-05T04:07:44.444Z,99.9
2018-09-05T04:08:44.801Z,99.9
2018-09-05T04:09:44.938Z,99.9
2018-09-05T04:10:51.554Z,99.9
2018-09-05T04:11:53.041Z,99.9
2018-09-05T04:12:54.528Z,99.9
2018-09-05T04:13:54.437Z,99.9
2018-09-05T04:14:55.016Z,99.9
2018-09-05T04:15:58.333Z,99.9
2018-09-05T04:16:58.252Z,99.9
2018-09-05T04:18:03.455Z,99.9
2018-09-05T04:19:04.096Z,99.9
2018-09-05T04:20:06.979Z,99.9
2018-09-05T04:21:07.182Z,99.9
2018-09-05T04:22:09.080Z,99.9
2018-09-05T04:23:09.752Z,99.9
2018-09-05T04:24:09.684Z,99.9
2018-09-05T04:25:13.478Z,99.9
2018-09-05T04:26:13.656Z,99.9
2018-09-05T04:27:14.242Z,99.9
2018-09-05T04:28:18.291Z,99.9
2018-09-05T04:29:19.011Z,99.9
2018-09-05T04:30:21.473Z,99.9
2018-09-05T04:31:22.238Z,99.9
2018-09-05T04:32:24.813Z,99.9
2018-09-05T04:33:28.909Z,99.9
2018-09-05T04:34:35.511Z,99.9
2018-09-05T04:35:37.129Z,99.9
2018-09-05T04:36:37.579Z,99.9
2018-09-05T04:37:45.935Z,99.9
2018-09-05T04:38:49.638Z,99.9
2018-09-05T04:39:49.559Z,99.9
2018-09-05T04:41:08.017Z,99.9
2018-09-05T04:42:12.131Z,99.9
2018-09-05T04:43:15.169Z,99.9
2018-09-05T04:44:18.893Z,99.9
2018-09-05T04:45:19.739Z,99.9
2018-09-05T04:46:20.733Z,99.9
2018-09-05T04:47:28.414Z,99.9
2018-09-05T04:48:29.331Z,99.9
2018-09-05T04:49:37.681Z,99.9
2018-09-05T04:50:40.612Z,99.9
2018-09-05T04:51:44.367Z,99.9
2018-09-05T04:52:48.161Z,99.9
2018-09-05T04:53:48.378Z,99.9
2018-09-05T04:54:48.969Z,99.9
2018-09-05T04:55:48.887Z,99.9
2018-09-05T04:56:59.581Z,99.9
2018-09-05T04:58:09.195Z,99.9
2018-09-05T04:59:09.332Z,99.9
2018-09-05T05:00:20.430Z,99.9
2018-09-05T05:01:23.769Z,99.9
2018-09-05T05:02:23.914Z,99.9
2018-09-05T05:03:27.881Z,99.9
2018-09-05T05:04:31.270Z,99.9
2018-09-05T05:05:31.941Z,99.9
2018-09-05T05:06:32.259Z,99.9
2018-09-05T05:07:34.163Z,99.9
2018-09-05T05:08:37.344Z,99.9
2018-09-05T05:09:37.278Z,99.9
2018-09-05T05:10:48.315Z,99.9
2018-09-05T05:11:51.251Z,99.9
2018-09-05T05:12:53.815Z,99.9
2018-09-05T05:14:04.242Z,99.9
2018-09-05T05:15:04.843Z,99.9
2018-09-05T05:16:04.772Z,99.9
2018-09-05T05:17:12.187Z,99.9
2018-09-05T05:18:17.044Z,99.9
2018-09-05T05:19:26.042Z,99.9
2018-09-05T05:20:29.375Z,99.9
2018-09-05T05:21:33.376Z,99.9
2018-09-05T05:22:35.284Z,99.9
2018-09-05T05:23:39.435Z,99.9
2018-09-05T05:24:52.425Z,99.9
2018-09-05T05:25:56.369Z,99.9
2018-09-05T05:26:57.946Z,99.9
2018-09-05T05:27:58.077Z,99.9
2018-09-05T05:29:04.485Z,99.9
2018-09-05T05:30:11.187Z,99.9
2018-09-05T05:31:18.677Z,99.9
2018-09-05T05:32:26.287Z,99.9
2018-09-05T05:33:27.085Z,99.9
2018-09-05T05:34:27.012Z,99.9
2018-09-05T05:35:33.821Z,99.9
2018-09-05T05:36:36.745Z,99.9
2018-09-05T05:37:38.875Z,99.9
2018-09-05T05:38:41.673Z,99.9
2018-09-05T05:39:53.488Z,99.9
2018-09-05T05:40:54.103Z,99.9
2018-09-05T05:41:54.698Z,99.9
2018-09-05T05:43:00.618Z,99.9
2018-09-05T05:44:03.565Z,99.9
2018-09-05T05:45:03.968Z,99.9
2018-09-05T05:46:04.585Z,99.9
2018-09-05T05:47:04.728Z,99.9
2018-09-05T05:48:11.700Z,99.9
2018-09-05T05:49:15.349Z,99.9
2018-09-05T05:50:15.261Z,99.9
2018-09-05T05:51:15.196Z,99.9
2018-09-05T05:52:19.530Z,99.9
2018-09-05T05:53:29.569Z,99.9
2018-09-05T05:54:30.700Z,99.9
2018-09-05T05:55:42.967Z,99.9
2018-09-05T05:56:46.595Z,99.9
2018-09-05T05:57:50.343Z,99.9
2018-09-05T05:58:53.382Z,99.9
2018-09-05T05:59:57.954Z,99.9
2018-09-05T06:00:58.630Z,99.9
2018-09-05T06:02:08.985Z,99.9
2018-09-05T06:03:08.909Z,99.9
2018-09-05T06:04:13.475Z,99.9
2018-09-05T06:05:42.380Z,99.9
2018-09-05T06:06:42.341Z,99.9
2018-09-05T06:07:48.651Z,99.9
2018-09-05T06:08:48.558Z,99.9
2018-09-05T06:09:50.062Z,99.9
2018-09-05T06:10:59.865Z,99.9
2018-09-05T06:12:00.969Z,99.9
2018-09-05T06:13:22.437Z,99.9
2018-09-05T06:14:27.342Z,99.9
2018-09-05T06:15:40.618Z,99.9
2018-09-05T06:16:42.436Z,99.9
2018-09-05T06:17:44.406Z,99.9
2018-09-05T06:18:53.467Z,99.9
2018-09-05T06:19:56.510Z,99.9
2018-09-05T06:21:01.345Z,99.9
2018-09-05T06:22:05.476Z,99.9
2018-09-05T06:23:06.066Z,99.9
2018-09-05T06:24:15.059Z,99.9
2018-09-05T06:25:18.276Z,99.9
2018-09-05T06:26:23.166Z,99.9
2018-09-05T06:27:29.925Z,99.9
2018-09-05T06:28:31.854Z,99.9
2018-09-05T06:29:36.160Z,99.9
2018-09-05T06:30:37.815Z,99.9
2018-09-05T06:31:38.967Z,99.9
2018-09-05T06:32:44.645Z,99.9
2018-09-05T06:33:45.251Z,99.9
2018-09-05T06:34:51.712Z,99.9
2018-09-05T06:35:53.199Z,99.9
2018-09-05T06:36:54.921Z,99.9
2018-09-05T06:38:00.723Z,99.9
2018-09-05T06:39:05.730Z,99.9
2018-09-05T06:40:15.242Z,99.9
2018-09-05T06:41:16.138Z,99.9
2018-09-05T06:42:18.913Z,99.9
2018-09-05T06:43:19.507Z,99.9
2018-09-05T06:44:19.439Z,99.9
2018-09-05T06:45:20.270Z,99.9
2018-09-05T06:46:20.884Z,99.9
2018-09-05T06:47:22.374Z,99.9
2018-09-05T06:48:25.654Z,99.9
2018-09-05T06:49:28.621Z,99.8
2018-09-05T06:50:28.542Z,99.9
2018-09-05T06:51:59.693Z,99.8
2018-09-05T06:53:03.411Z,99.9
2018-09-05T06:54:04.015Z,99.2
2018-09-05T06:55:08.185Z,99.3
2018-09-05T06:56:14.065Z,99.4
2018-09-05T06:57:17.701Z,99.4
2018-09-05T06:58:23.469Z,99.2
2018-09-05T06:59:23.710Z,99.5
2018-09-05T07:00:26.418Z,98.7
2018-09-05T07:01:42.423Z,98.6
2018-09-05T07:02:42.331Z,98.9
2018-09-05T07:03:43.572Z,99
2018-09-05T07:04:52.993Z,98.9
2018-09-05T07:05:53.936Z,99.1
2018-09-05T07:06:57.930Z,98.8
2018-09-05T07:08:04.850Z,98.3
2018-09-05T07:09:09.320Z,98.8
2018-09-05T07:10:10.824Z,99.1
2018-09-05T07:11:13.775Z,98.8
2018-09-05T07:12:13.710Z,98.6
2018-09-05T07:13:13.663Z,98.6
2018-09-05T07:14:17.898Z,98
2018-09-05T07:15:18.052Z,97.9
2018-09-05T07:16:21.978Z,98.5
2018-09-05T07:17:22.097Z,98
2018-09-05T07:18:27.242Z,98.7
2018-09-05T07:19:34.013Z,97.9
2018-09-05T07:20:34.147Z,98
2018-09-05T07:21:34.575Z,97.9
2018-09-05T07:22:34.927Z,98.5
2018-09-05T07:23:34.912Z,97.5
2018-09-05T07:24:34.871Z,97.2
2018-09-05T07:25:40.518Z,96.8
2018-09-05T07:26:44.413Z,96.9
2018-09-05T07:27:44.322Z,97
2018-09-05T07:28:44.457Z,96.9
2018-09-05T07:29:49.888Z,97.6
2018-09-05T07:30:50.231Z,96.8
2018-09-05T07:31:57.126Z,97.1
2018-09-05T07:32:57.741Z,96.3
2018-09-05T07:33:57.873Z,97.2
2018-09-05T07:34:58.023Z,96.5
2018-09-05T07:36:02.183Z,97.5
2018-09-05T07:37:02.138Z,96.6
2018-09-05T07:38:11.260Z,95.6
2018-09-05T07:39:15.076Z,96
2018-09-05T07:40:20.084Z,95.4
2018-09-05T07:41:19.989Z,95.9
2018-09-05T07:42:24.466Z,95.8
2018-09-05T07:43:25.044Z,95.2
2018-09-05T07:44:25.236Z,95.3
2018-09-05T07:45:25.271Z,95.3
2018-09-05T07:46:25.861Z,94.9
2018-09-05T07:47:28.510Z,94.9
2018-09-05T07:48:31.486Z,95.3
2018-09-05T07:49:32.114Z,95
2018-09-05T07:50:33.320Z,95.3
2018-09-05T07:51:35.279Z,95.5
2018-09-05T07:52:40.611Z,96.4
2018-09-05T07:53:40.748Z,96
2018-09-05T07:54:43.622Z,96.3
2018-09-05T07:55:46.519Z,96.2
2018-09-05T07:56:50.500Z,96
2018-09-05T07:57:50.673Z,95
2018-09-05T07:58:53.238Z,95.2
2018-09-05T07:59:53.369Z,94.5
2018-09-05T08:00:55.965Z,94.7
2018-09-05T08:01:59.339Z,95.6
2018-09-05T08:02:59.700Z,95.4
2018-09-05T08:04:00.787Z,94.1
2018-09-05T08:05:01.372Z,94.4
2018-09-05T08:06:01.302Z,95.5
2018-09-05T08:07:06.769Z,95.3
2018-09-05T08:08:06.918Z,94.5
2018-09-05T08:09:07.279Z,94.8
2018-09-05T08:10:07.211Z,95.1
2018-09-05T08:11:13.261Z,94.9
2018-09-05T08:12:14.241Z,95.3
2018-09-05T08:13:17.384Z,95.5
2018-09-05T08:14:17.510Z,95.1
2018-09-05T08:15:17.644Z,94.7
2018-09-05T08:16:17.555Z,94.6
2018-09-05T08:17:21.667Z,94.3
2018-09-05T08:18:21.900Z,93.6
2018-09-05T08:19:21.804Z,93.8
2018-09-05T08:20:21.719Z,94.7
2018-09-05T08:21:25.603Z,94.1
2018-09-05T08:22:25.512Z,94.9
2018-09-05T08:23:25.451Z,94.5
2018-09-05T08:24:26.661Z,94.6
2018-09-05T08:25:26.637Z,95.2
2018-09-05T08:26:29.816Z,94.7
2018-09-05T08:27:29.726Z,93.1
2018-09-05T08:28:29.687Z,94.1
2018-09-05T08:29:35.781Z,93.5
2018-09-05T08:30:39.058Z,94.2
2018-09-05T08:31:40.130Z,94.3
2018-09-05T08:32:40.271Z,94.7
2018-09-05T08:33:40.441Z,94.9
2018-09-05T08:34:41.755Z,95.2
2018-09-05T08:35:44.350Z,95.2
2018-09-05T08:36:46.033Z,95.2
2018-09-05T08:37:48.107Z,95.7
2018-09-05T08:38:49.173Z,95.7
2018-09-05T08:39:49.777Z,95.5
2018-09-05T08:40:49.795Z,95.4
2018-09-05T08:41:52.104Z,96.1
2018-09-05T08:42:53.095Z,96
2018-09-05T08:43:54.440Z,95.4
2018-09-05T08:44:55.937Z,95.8
2018-09-05T08:45:59.704Z,95.3
2018-09-05T08:47:00.973Z,95.4
2018-09-05T08:48:01.569Z,95.2
2018-09-05T08:49:04.625Z,95.2
2018-09-05T08:50:08.118Z,95.6
2018-09-05T08:51:08.280Z,95.7
2018-09-05T08:52:08.986Z,96.2
2018-09-05T08:53:09.947Z,95.6
2018-09-05T08:54:09.902Z,96.1
2018-09-05T08:55:10.645Z,95.8
2018-09-05T08:56:12.437Z,96.1
2018-09-05T08:57:12.884Z,95.9
2018-09-05T08:58:13.033Z,96
2018-09-05T08:59:20.361Z,95.7
2018-09-05T09:00:20.959Z,95.1
2018-09-05T09:01:25.007Z,95.7
2018-09-05T09:02:28.889Z,95.2
2018-09-05T09:03:29.450Z,94.7
2018-09-05T09:04:29.460Z,95
2018-09-05T09:05:29.537Z,95.3
2018-09-05T09:06:29.486Z,95.7
2018-09-05T09:07:29.385Z,95.9
2018-09-05T09:08:33.090Z,95.8
2018-09-05T09:09:33.027Z,95.6
2018-09-05T09:10:33.632Z,94.7
2018-09-05T09:11:34.063Z,95
2018-09-05T09:12:34.746Z,94.7
2018-09-05T09:13:35.379Z,94.8
2018-09-05T09:14:35.318Z,95.1
2018-09-05T09:15:36.129Z,94.7
2018-09-05T09:16:39.680Z,94.5
2018-09-05T09:17:39.591Z,94.5
2018-09-05T09:18:39.527Z,95.1
2018-09-05T09:19:40.124Z,95.2
2018-09-05T09:20:40.015Z,95.1
2018-09-05T09:21:42.994Z,95.1
2018-09-05T09:22:46.745Z,95.9
2018-09-05T09:23:46.910Z,95.4
2018-09-05T09:24:46.870Z,95.1
2018-09-05T09:25:47.273Z,95.1
2018-09-05T09:26:48.624Z,95.6
2018-09-05T09:27:48.969Z,95.9
2018-09-05T09:28:48.876Z,95.7
2018-09-05T09:29:56.008Z,95.4
2018-09-05T09:30:57.167Z,95.3
2018-09-05T09:31:57.757Z,94.8
2018-09-05T09:32:58.773Z,95
2018-09-05T09:33:58.691Z,95.4
2018-09-05T09:35:01.696Z,95.4
2018-09-05T09:36:04.440Z,95
2018-09-05T09:37:04.355Z,95.2
2018-09-05T09:38:07.315Z,95.4
2018-09-05T09:39:12.505Z,95.5
2018-09-05T09:40:12.452Z,94.5
2018-09-05T09:41:13.048Z,95.2
2018-09-05T09:42:12.963Z,95.6
2018-09-05T09:43:17.966Z,95.1
2018-09-05T09:44:18.876Z,95.3
2018-09-05T09:45:19.465Z,95.2
2018-09-05T09:46:20.825Z,94.8
2018-09-05T09:47:24.871Z,95.6
2018-09-05T09:48:24.792Z,95.7
2018-09-05T09:49:24.715Z,95.7
2018-09-05T09:50:24.899Z,95.9
2018-09-05T09:51:25.517Z,96.4
2018-09-05T09:52:25.427Z,96.3
2018-09-05T09:53:25.766Z,96
2018-09-05T09:54:30.169Z,95.7
2018-09-05T09:55:30.367Z,96.3
2018-09-05T09:56:31.141Z,96.7
2018-09-05T09:57:31.133Z,96.6
2018-09-05T09:58:31.308Z,96.3
2018-09-05T09:59:31.445Z,96.3
2018-09-05T10:00:31.383Z,96.4
2018-09-05T10:01:31.309Z,96
2018-09-05T10:02:34.017Z,96.2
2018-09-05T10:03:35.462Z,95.9
2018-09-05T10:04:36.138Z,96
2018-09-05T10:05:36.095Z,96.4
2018-09-05T10:06:36.215Z,96.6
2018-09-05T10:07:36.352Z,95.6
2018-09-05T10:08:48.354Z,95.4
2018-09-05T10:09:49.891Z,95.9
2018-09-05T10:10:51.625Z,95.8
2018-09-05T10:11:51.533Z,96.4
2018-09-05T10:12:51.456Z,96
2018-09-05T10:13:56.059Z,96.3
2018-09-05T10:14:59.842Z,96.5
2018-09-05T10:16:00.844Z,95.8
2018-09-05T10:17:01.004Z,95.3
2018-09-05T10:18:01.112Z,95.6
2018-09-05T10:19:01.035Z,96.2
2018-09-05T10:20:00.955Z,95.9
2018-09-05T10:21:01.249Z,96.2
2018-09-05T10:22:02.383Z,95.9
2018-09-05T10:23:02.297Z,95.9
2018-09-05T10:24:11.496Z,96.4
2018-09-05T10:25:11.440Z,97
2018-09-05T10:26:11.609Z,97.2
2018-09-05T10:27:11.531Z,97
2018-09-05T10:28:19.116Z,97.1
2018-09-05T10:29:19.011Z,97.1
2018-09-05T10:30:18.927Z,96.6
2018-09-05T10:31:19.528Z,96.6
2018-09-05T10:32:19.494Z,96.9
2018-09-05T10:33:19.403Z,96.6
2018-09-05T10:34:21.447Z,96.6
2018-09-05T10:35:22.031Z,96.8
2018-09-05T10:36:21.968Z,96.8
2018-09-05T10:37:22.352Z,96.3
2018-09-05T10:38:22.260Z,96.6
2018-09-05T10:39:22.171Z,97
2018-09-05T10:40:22.312Z,97
2018-09-05T10:41:22.903Z,97
2018-09-05T10:42:23.536Z,96.8
2018-09-05T10:43:23.458Z,96.4
2018-09-05T10:44:27.735Z,96.3
2018-09-05T10:45:27.644Z,96.8
2018-09-05T10:46:27.828Z,96.7
2018-09-05T10:47:27.988Z,96.7
2018-09-05T10:48:28.123Z,96.9
2018-09-05T10:49:28.619Z,96.8
2018-09-05T10:50:28.559Z,96.6
2018-09-05T10:51:29.477Z,97
2018-09-05T10:52:34.192Z,97.3
2018-09-05T10:53:34.327Z,96.9
2018-09-05T10:54:34.682Z,96.5
2018-09-05T10:55:34.596Z,96.9
2018-09-05T10:56:35.424Z,96.9
2018-09-05T10:57:35.352Z,97.1
2018-09-05T10:58:35.497Z,96.7
2018-09-05T10:59:39.525Z,97.1
2018-09-05T11:00:40.361Z,97.2
2018-09-05T11:01:40.298Z,96.7
2018-09-05T11:02:40.226Z,96.1
2018-09-05T11:03:41.364Z,96.7
2018-09-05T11:04:46.717Z,96.5
2018-09-05T11:05:51.276Z,96.3
2018-09-05T11:06:51.669Z,96.8
2018-09-05T11:07:51.826Z,96.9
2018-09-05T11:08:51.755Z,96.9
2018-09-05T11:09:52.344Z,96.8
2018-09-05T11:10:56.541Z,96.4
2018-09-05T11:11:57.601Z,96.7
2018-09-05T11:12:57.507Z,96.8
2018-09-05T11:13:57.440Z,96.2
2018-09-05T11:14:58.231Z,96.2
2018-09-05T11:15:58.153Z,96.5
2018-09-05T11:17:01.813Z,96.1
2018-09-05T11:18:04.699Z,95.9
2018-09-05T11:19:04.616Z,96
2018-09-05T11:20:04.539Z,96.7
2018-09-05T11:21:08.189Z,96.9
2018-09-05T11:22:11.251Z,96.9
2018-09-05T11:23:11.383Z,97.4
2018-09-05T11:24:11.314Z,96.9
2018-09-05T11:25:15.567Z,96.6
2018-09-05T11:26:19.157Z,96.7
2018-09-05T11:27:19.105Z,96.4
2018-09-05T11:28:21.847Z,96.6
2018-09-05T11:29:21.756Z,96.8
2018-09-05T11:30:21.664Z,97
2018-09-05T11:31:21.562Z,96.9
2018-09-05T11:32:21.509Z,96.8
2018-09-05T11:33:21.443Z,97.1
2018-09-05T11:34:21.342Z,97.3
2018-09-05T11:35:21.686Z,97.4
2018-09-05T11:36:21.608Z,97.3
2018-09-05T11:37:21.523Z,97.4
2018-09-05T11:38:21.472Z,97.4
2018-09-05T11:39:21.608Z,97.6
2018-09-05T11:40:21.581Z,97.4
2018-09-05T11:41:21.498Z,97.7
2018-09-05T11:42:22.074Z,97.9
2018-09-05T11:43:22.001Z,97.8
2018-09-05T11:44:21.909Z,97.9
2018-09-05T11:45:22.510Z,97.6
2018-09-05T11:46:22.405Z,98.1
2018-09-05T11:47:22.310Z,98.2
2018-09-05T11:48:22.492Z,98.2
2018-09-05T11:49:22.430Z,98.3
2018-09-05T11:50:22.346Z,98
2018-09-05T11:51:25.311Z,97.7
2018-09-05T11:52:25.216Z,97.9
2018-09-05T11:53:25.133Z,98.1
2018-09-05T11:54:27.851Z,98.1
2018-09-05T11:55:28.258Z,97.9
2018-09-05T11:56:28.170Z,98.2
2018-09-05T11:57:28.750Z,98
2018-09-05T11:58:28.692Z,98.2
2018-09-05T11:59:28.589Z,98.3
2018-09-05T12:00:29.177Z,98.3
2018-09-05T12:01:29.091Z,98.2
2018-09-05T12:02:29.013Z,98.1
2018-09-05T12:03:29.595Z,98.3
2018-09-05T12:04:29.501Z,98.3
2018-09-05T12:05:30.375Z,98.7
2018-09-05T12:06:30.290Z,98.6
2018-09-05T12:07:30.272Z,98.2
2018-09-05T12:08:30.917Z,98.5
2018-09-05T12:09:30.826Z,98.6
2018-09-05T12:10:30.758Z,97.9
2018-09-05T12:11:30.787Z,97.9
2018-09-05T12:12:30.757Z,98
2018-09-05T12:13:30.746Z,98.2
2018-09-05T12:14:31.657Z,98.2
2018-09-05T12:15:32.048Z,98.2
2018-09-05T12:16:31.953Z,98
2018-09-05T12:17:32.091Z,97.6
2018-09-05T12:18:32.142Z,97.7
2018-09-05T12:19:32.090Z,98.3
2018-09-05T12:20:32.260Z,98.3
2018-09-05T12:21:32.180Z,98.5
2018-09-05T12:22:32.104Z,98.7
2018-09-05T12:23:33.040Z,98.4
2018-09-05T12:24:32.945Z,98.6
2018-09-05T12:25:33.306Z,98.6
2018-09-05T12:26:33.217Z,97.8
2018-09-05T12:27:33.134Z,97.7
2018-09-05T12:28:33.084Z,97.6
2018-09-05T12:29:33.226Z,97.9
2018-09-05T12:30:33.135Z,97.7
2018-09-05T12:31:33.046Z,97.2
2018-09-05T12:32:33.177Z,97.2
2018-09-05T12:33:33.102Z,97.8
2018-09-05T12:34:34.041Z,97.5
2018-09-05T12:35:35.081Z,97.7
2018-09-05T12:36:34.980Z,97.6
2018-09-05T12:37:35.115Z,97.7
2018-09-05T12:38:35.025Z,97.5
2018-09-05T12:39:36.187Z,97.5
2018-09-05T12:40:39.050Z,97.2
2018-09-05T12:41:38.967Z,97.5
2018-09-05T12:42:38.876Z,97.4
2018-09-05T12:43:41.360Z,97.3
2018-09-05T12:44:42.645Z,97.4
2018-09-05T12:45:43.253Z,97.3
2018-09-05T12:46:46.381Z,97.4
2018-09-05T12:47:46.293Z,97.4
2018-09-05T12:48:47.220Z,97.7
2018-09-05T12:49:47.802Z,97.8
2018-09-05T12:50:47.705Z,97.2
2018-09-05T12:51:47.677Z,97.5
2018-09-05T12:52:47.811Z,97.4
2018-09-05T12:53:47.980Z,97.5
2018-09-05T12:54:48.885Z,97.5
2018-09-05T12:55:49.235Z,97.4
2018-09-05T12:56:49.161Z,97.1
2018-09-05T12:57:49.359Z,97.3
2018-09-05T12:58:49.272Z,97.4
2018-09-05T12:59:49.212Z,97.2
2018-09-05T13:00:50.063Z,96.8
2018-09-05T13:01:50.664Z,96.8
2018-09-05T13:02:53.098Z,97.1
2018-09-05T13:03:53.033Z,97.3
2018-09-05T13:04:53.087Z,96.8
2018-09-05T13:05:58.434Z,96.8
2018-09-05T13:06:58.559Z,96.9
2018-09-05T13:08:02.580Z,97.1
2018-09-05T13:09:05.401Z,97.2
2018-09-05T13:10:05.546Z,97.1
2018-09-05T13:11:05.463Z,96.9
2018-09-05T13:12:08.584Z,97
2018-09-05T13:13:08.508Z,96.9
2018-09-05T13:14:08.446Z,96.9
2018-09-05T13:15:08.807Z,96.6
2018-09-05T13:16:10.414Z,96.4
2018-09-05T13:17:10.321Z,96.9
2018-09-05T13:18:13.009Z,97.2
2018-09-05T13:19:12.933Z,97
2018-09-05T13:20:12.847Z,96.4
2018-09-05T13:21:12.769Z,96.5
2018-09-05T13:22:13.667Z,96.3
2018-09-05T13:23:21.091Z,96.3
2018-09-05T13:24:24.567Z,96.1
2018-09-05T13:25:25.507Z,96.1
2018-09-05T13:26:25.974Z,96
2018-09-05T13:27:26.215Z,96.2
2018-09-05T13:28:26.819Z,95.7
2018-09-05T13:29:26.761Z,95.8
2018-09-05T13:30:26.898Z,96.1
2018-09-05T13:31:30.803Z,96.1
2018-09-05T13:32:37.522Z,95.7
2018-09-05T13:33:37.895Z,95.7
2018-09-05T13:34:37.840Z,96.2
2018-09-05T13:35:37.760Z,96.5
2018-09-05T13:36:41.359Z,96.6
2018-09-05T13:37:41.715Z,96.3
2018-09-05T13:38:41.623Z,96.5
2018-09-05T13:39:43.242Z,96.5
2018-09-05T13:40:43.150Z,96.6
2018-09-05T13:41:43.079Z,96.3
2018-09-05T13:42:43.003Z,96.7